Arcadia, Kansas
Current Conditions -  °F | °C
As of 11:55 PM on Friday 28 Nov 2014 (Local Time) from KPTS Reporting Station
Clear Clear  
Wind Chill: 56°   Ceiling: Unl
Heat Index: 56°   Visibility: 10mi
Dew Point: 47°   Wind: 13mph
Humidity: 73%   Direction: 220°SW
Pressure: 29.81"   Gusts: 20mph
Location:  37.64°N, 94.62°W
Report Text: KPTS 290555Z AUTO 22011G17KT 10SM CLR 13/09 A2981 RMK AO2 T01330086
Loading
Personal Weather Stations






























Interactive Weather Map New forecast layout! Learn more

10-Day Weather Forecast

Advertisements
Track Severe Weather on mobile